Torr Penn — FAA8580 — position and weather

sailwx.info

Track history (hours):
 
Tides and Currents Weather Stations Pressure Air Temp Water Temp Dewpoint Dewpoint Depression Visibility Wind Speed Wind Dir Waves Ship Positions

Torr Penn

Last reported at 2017-Dec-16 11:27 UTC. Time now 2017-Dec-17 06:28 UTC.
Position N 47°20' W 002°52'.

Length 15 m.

Type: Sailing vessel. MMSI: 227163870.

Date/timePositionNaut miles runAvg speedWind from/ knotsBaromVisibWave heightAir tempDewpointWater temp
2017-Dec-16 11:27N 47°20' W 002°52'0 0.3
2017-Dec-16 10:58N 47°20' W 002°51'6 5.8
2017-Dec-16 09:57N 47°20' W 002°43'3 5.8
2017-Dec-16 09:28N 47°20' W 002°39'  
2017-Dec-09 13:25N 47°23' W 002°48'3 6.4
2017-Dec-09 12:59N 47°24' W 002°52'3 6.6
2017-Dec-09 12:30N 47°25' W 002°57'3 6.2
2017-Dec-09 12:00N 47°26' W 003°01'3 5.5
2017-Dec-09 11:30N 47°27' W 003°05'2 4.6
2017-Dec-09 11:00N 47°28' W 003°08'3 5.1
2017-Dec-09 10:30N 47°30' W 003°11'3 5.5
2017-Dec-09 10:00N 47°31' W 003°14'3 5.6
2017-Dec-09 09:30N 47°33' W 003°17'3 5.7
2017-Dec-09 09:00N 47°35' W 003°20'3 5.8
2017-Dec-09 08:30N 47°37' W 003°23'3 5.8
2017-Dec-09 08:00N 47°39' W 003°26'0 0.6
2017-Dec-09 07:28N 47°39' W 003°27'0 0.0
2017-Dec-08 20:52N 47°39' W 003°27'0 0.0
2017-Dec-08 20:28N 47°39' W 003°27'0 0.0
2017-Dec-08 19:58N 47°39' W 003°27'0 0.0
2017-Dec-08 19:28N 47°39' W 003°27'0 0.0
2017-Dec-08 18:58N 47°39' W 003°27'0 0.0
2017-Dec-08 18:28N 47°39' W 003°27'0 0.0
2017-Dec-08 17:58N 47°39' W 003°27'0 0.0
2017-Dec-07 19:30N 47°39' W 003°27'0 0.0
2017-Dec-07 16:51N 47°39' W 003°27'0 1.0
2017-Dec-07 16:30N 47°39' W 003°26'3 5.6
2017-Dec-07 16:00N 47°41' W 003°24'2 4.8
2017-Dec-07 15:30N 47°43' W 003°22'0 0.4
2017-Dec-07 14:58N 47°43' W 003°22'0 0.0
2017-Dec-07 14:28N 47°43' W 003°22'0 0.0
2017-Dec-07 13:58N 47°43' W 003°22'0 0.0
2017-Dec-07 13:28N 47°43' W 003°22'0 0.0
2017-Dec-07 12:58N 47°43' W 003°22'0 0.0
2017-Dec-07 12:28N 47°43' W 003°22'0 0.0
2017-Dec-07 11:58N 47°43' W 003°22'0 0.0
2017-Dec-07 11:28N 47°43' W 003°22'0 0.0
2017-Dec-07 11:00N 47°43' W 003°22'  
Track history (hours):
 
Tides and Currents Weather Stations Pressure Air Temp Water Temp Dewpoint Dewpoint Depression Visibility Wind Speed Wind Dir Waves Ship Positions

Torr Penn

Last reported at 2017-Dec-16 11:27 UTC. Time now 2017-Dec-17 06:28 UTC.
Position N 47°20' W 002°52'.

Length 15 m.

Type: Sailing vessel. MMSI: 227163870.

Date/timePositionNaut miles runAvg speedWind from/ knotsBaromVisibWave heightAir tempDewpointWater temp
2017-Dec-16 11:27N 47°20' W 002°52'0 0.3
2017-Dec-16 10:58N 47°20' W 002°51'6 5.8
2017-Dec-16 09:57N 47°20' W 002°43'3 5.8
2017-Dec-16 09:28N 47°20' W 002°39'  
2017-Dec-09 13:25N 47°23' W 002°48'3 6.4
2017-Dec-09 12:59N 47°24' W 002°52'3 6.6
2017-Dec-09 12:30N 47°25' W 002°57'3 6.2
2017-Dec-09 12:00N 47°26' W 003°01'3 5.5
2017-Dec-09 11:30N 47°27' W 003°05'2 4.6
2017-Dec-09 11:00N 47°28' W 003°08'3 5.1
2017-Dec-09 10:30N 47°30' W 003°11'3 5.5
2017-Dec-09 10:00N 47°31' W 003°14'3 5.6
2017-Dec-09 09:30N 47°33' W 003°17'3 5.7
2017-Dec-09 09:00N 47°35' W 003°20'3 5.8
2017-Dec-09 08:30N 47°37' W 003°23'3 5.8
2017-Dec-09 08:00N 47°39' W 003°26'0 0.6
2017-Dec-09 07:28N 47°39' W 003°27'0 0.0
2017-Dec-08 20:52N 47°39' W 003°27'0 0.0
2017-Dec-08 20:28N 47°39' W 003°27'0 0.0
2017-Dec-08 19:58N 47°39' W 003°27'0 0.0
2017-Dec-08 19:28N 47°39' W 003°27'0 0.0
2017-Dec-08 18:58N 47°39' W 003°27'0 0.0
2017-Dec-08 18:28N 47°39' W 003°27'0 0.0
2017-Dec-08 17:58N 47°39' W 003°27'0 0.0
2017-Dec-07 19:30N 47°39' W 003°27'0 0.0
2017-Dec-07 16:51N 47°39' W 003°27'0 1.0
2017-Dec-07 16:30N 47°39' W 003°26'3 5.6
2017-Dec-07 16:00N 47°41' W 003°24'2 4.8
2017-Dec-07 15:30N 47°43' W 003°22'0 0.4
2017-Dec-07 14:58N 47°43' W 003°22'0 0.0
2017-Dec-07 14:28N 47°43' W 003°22'0 0.0
2017-Dec-07 13:58N 47°43' W 003°22'0 0.0
2017-Dec-07 13:28N 47°43' W 003°22'0 0.0
2017-Dec-07 12:58N 47°43' W 003°22'0 0.0
2017-Dec-07 12:28N 47°43' W 003°22'0 0.0
2017-Dec-07 11:58N 47°43' W 003°22'0 0.0
2017-Dec-07 11:28N 47°43' W 003°22'0 0.0
2017-Dec-07 11:00N 47°43' W 003°22'  

Dump ship's entire track history